Time;durP1;ratioP1;P1;durP2;ratioP2;P2;SDS_P1;SDS_P2;PMS_P1;PMS_P2;Temp;Humidity;BMP_temperature;BMP_pressure;BME280_temperature;BME280_humidity;BME280_pressure;Samples;Min_cycle;Max_cycle;Signal;HPM_P1;HPM_P2
2022/08/09 00:01:50;;;;;;;4.50;4.10;;;;;;;-143.84;41.51;44932.91;5111854;28;20832;-74
2022/08/09 00:04:19;;;;;;;7.37;4.30;;;;;;;-143.84;41.33;44948.16;5111097;28;20499;-74
2022/08/09 00:06:47;;;;;;;8.20;3.67;;;;;;;-143.84;41.57;44925.31;5110428;28;20475;-74
2022/08/09 00:09:16;;;;;;;5.53;4.07;;;;;;;-143.84;41.43;44938.63;5110432;28;20443;-74
2022/08/09 00:11:44;;;;;;;9.17;4.30;;;;;;;-143.84;41.54;44938.63;5110894;28;20447;-74
2022/08/09 00:14:12;;;;;;;4.70;3.77;;;;;;;-143.84;41.94;44931.00;5110798;28;20434;-74
2022/08/09 00:16:39;;;;;;;6.90;4.57;;;;;;;-143.84;42.04;44963.38;5110954;28;20435;-69
2022/08/09 00:19:07;;;;;;;7.90;4.13;;;;;;;-143.84;42.20;44969.09;5111317;28;20967;-69
2022/08/09 00:21:34;;;;;;;9.03;4.30;;;;;;;-143.84;42.43;44963.38;5111288;28;20504;-69
2022/08/09 00:24:01;;;;;;;9.30;4.00;;;;;;;-143.84;42.49;44946.25;5110956;28;20492;-69
2022/08/09 00:26:30;;;;;;;6.20;4.10;;;;;;;-143.84;42.92;44940.53;5110941;28;21021;-69
2022/08/09 00:28:58;;;;;;;9.30;3.93;;;;;;;-143.84;43.03;44942.44;5111218;28;20443;-69
2022/08/09 00:31:26;;;;;;;7.70;4.23;;;;;;;-143.84;42.95;44953.88;5111063;28;20439;-68
2022/08/09 00:33:55;;;;;;;11.23;3.87;;;;;;;-143.84;43.00;44959.56;5111180;28;20435;-69
2022/08/09 00:36:24;;;;;;;6.20;3.97;;;;;;;-143.84;43.01;44931.00;5110955;28;20937;-69
2022/08/09 00:38:51;;;;;;;6.40;4.33;;;;;;;-143.84;43.36;44944.34;5110582;28;20476;-69
2022/08/09 00:41:21;;;;;;;5.00;4.50;;;;;;;-143.84;43.50;44980.53;5110703;27;20443;-69
2022/08/09 00:43:51;;;;;;;10.93;4.70;;;;;;;-143.84;43.49;44951.97;5110672;28;20450;-69
2022/08/09 00:46:18;;;;;;;6.20;4.00;;;;;;;-143.84;43.43;44944.34;5122869;27;20952;-69
2022/08/09 00:48:46;;;;;;;7.50;4.03;;;;;;;-143.84;43.33;44955.75;5130697;27;20542;-69
2022/08/09 00:51:17;;;;;;;3.77;3.47;;;;;;;-143.84;43.16;44940.53;5127765;27;20457;-69
2022/08/09 00:53:45;;;;;;;6.93;4.10;;;;;;;-143.84;42.98;44953.88;5123751;27;20442;-69
2022/08/09 00:56:13;;;;;;;4.07;3.77;;;;;;;-143.84;42.85;44961.47;5125721;27;20466;-69
2022/08/09 00:58:40;;;;;;;9.10;3.50;;;;;;;-143.84;42.87;44950.06;5129818;27;20883;-69
2022/08/09 01:01:13;;;;;;;4.00;3.60;;;;;;;-143.84;42.81;44969.09;5129098;27;20450;-69
2022/08/09 01:03:48;;;;;;;5.30;3.87;;;;;;;-143.84;42.93;44944.34;5130904;27;20442;-69
2022/08/09 01:06:25;;;;;;;9.77;4.50;;;;;;;-143.84;43.42;44946.25;5130885;27;21489;-69
2022/08/09 01:09:02;;;;;;;13.60;4.50;;;;;;;-143.84;43.90;44944.34;5118597;27;20507;-69
2022/08/09 01:11:42;;;;;;;12.27;4.67;;;;;;;-143.84;44.32;44934.81;5129233;27;20502;-69
2022/08/09 01:14:15;;;;;;;7.33;4.53;;;;;;;-143.84;44.64;44948.16;5130484;27;20514;-69
2022/08/09 01:16:47;;;;;;;6.43;4.10;;;;;;;-143.84;45.01;44980.53;5129854;27;20438;-69
2022/08/09 01:19:34;;;;;;;5.90;4.03;;;;;;;-143.84;45.44;44961.47;5130244;27;20499;-69
2022/08/09 01:22:26;;;;;;;9.20;4.43;;;;;;;-143.84;46.62;44950.06;5130801;27;21403;-69
2022/08/09 01:25:00;;;;;;;5.83;4.23;;;;;;;-143.84;47.69;44953.88;5130663;27;20566;-69
2022/08/09 01:27:31;;;;;;;4.37;3.97;;;;;;;-143.84;48.31;44957.66;5112399;27;20476;-68
2022/08/09 01:30:03;;;;;;;6.30;5.33;;;;;;;-143.84;48.60;44978.63;5130248;27;20438;-69
2022/08/09 01:32:34;;;;;;;5.70;4.60;;;;;;;-143.84;49.12;44946.25;5130417;27;20438;-69
2022/08/09 01:35:07;;;;;;;5.37;4.80;;;;;;;-143.84;49.31;44967.19;5130267;27;20434;-69
2022/08/09 01:37:36;;;;;;;5.40;4.87;;;;;;;-143.84;49.64;44953.88;5130201;27;20457;-69
2022/08/09 01:40:06;;;;;;;9.30;4.50;;;;;;;-143.84;49.51;44988.13;5130042;27;20494;-69
2022/08/09 01:42:37;;;;;;;16.13;5.80;;;;;;;-143.84;49.67;44946.25;5130131;27;20908;-69
2022/08/09 01:45:05;;;;;;;9.83;5.20;;;;;;;-143.84;49.86;44965.28;5130229;27;20791;-69
2022/08/09 01:47:34;;;;;;;6.80;4.60;;;;;;;-143.84;49.42;44967.19;5129921;27;20474;-69
2022/08/09 01:50:03;;;;;;;7.73;4.33;;;;;;;-143.84;49.29;44963.38;5130054;27;20437;-69
2022/08/09 01:52:33;;;;;;;5.03;4.37;;;;;;;-143.84;49.21;44965.28;5130143;27;20456;-69
2022/08/09 01:55:03;;;;;;;9.13;5.00;;;;;;;-143.84;48.91;44972.91;5129544;27;20538;-69
2022/08/09 01:57:41;;;;;;;4.73;4.17;;;;;;;-143.84;48.85;44953.88;5130067;27;20449;-69
2022/08/09 02:00:10;;;;;;;4.80;4.00;;;;;;;-143.84;48.60;44953.88;5130051;27;20434;-69
2022/08/09 02:02:42;;;;;;;5.00;4.33;;;;;;;-143.84;48.27;44965.28;5130080;27;20495;-69
2022/08/09 02:05:12;;;;;;;10.63;4.20;;;;;;;-143.84;48.71;44993.84;5129826;27;20434;-69
2022/08/09 02:07:44;;;;;;;5.63;3.97;;;;;;;-143.84;48.63;44965.28;5129751;27;20534;-69
2022/08/09 02:10:14;;;;;;;5.40;4.93;;;;;;;-143.84;48.54;44957.66;5129904;28;20430;-69
2022/08/09 02:12:45;;;;;;;8.03;4.40;;;;;;;-143.84;48.44;44965.28;5129908;28;20441;-69
2022/08/09 02:15:15;;;;;;;4.60;4.20;;;;;;;-143.84;48.40;44961.47;5130025;28;21198;-69
2022/08/09 02:17:44;;;;;;;8.30;5.30;;;;;;;-143.84;48.48;44969.09;5129961;28;20430;-69
2022/08/09 02:20:13;;;;;;;6.80;3.80;;;;;;;-143.84;48.41;44980.53;5129596;28;20454;-69
2022/08/09 02:22:42;;;;;;;8.00;4.80;;;;;;;-143.84;48.15;44971.00;5129404;28;20442;-68
2022/08/09 02:25:17;;;;;;;7.43;4.83;;;;;;;-143.84;48.40;44971.00;5129586;28;20430;-69
2022/08/09 02:27:51;;;;;;;4.83;4.43;;;;;;;-143.84;49.00;44971.00;5129992;27;21178;-69
2022/08/09 02:30:18;;;;;;;6.37;5.67;;;;;;;-143.84;49.73;44969.09;5133791;27;21231;-69
2022/08/09 02:32:49;;;;;;;5.50;4.97;;;;;;;-143.84;49.32;44965.28;5134263;27;20911;-70
2022/08/09 02:35:21;;;;;;;9.77;4.60;;;;;;;-143.84;49.98;44974.81;5133589;27;20442;-69
2022/08/09 02:37:52;;;;;;;8.80;5.47;;;;;;;-143.84;50.60;44959.56;5133700;27;20486;-69
2022/08/09 02:40:22;;;;;;;6.20;5.57;;;;;;;-143.84;51.40;44982.41;5133588;27;20446;-69
2022/08/09 02:42:55;;;;;;;5.20;4.73;;;;;;;-143.84;52.05;44976.72;5133617;27;20487;-69
2022/08/09 02:45:27;;;;;;;8.23;5.37;;;;;;;-143.84;52.55;44976.72;5133447;27;20930;-69
2022/08/09 02:47:56;;;;;;;8.50;5.20;;;;;;;-143.84;52.84;44986.22;5133627;27;20478;-69
2022/08/09 02:50:26;;;;;;;10.43;5.40;;;;;;;-143.84;52.95;44959.56;5133787;27;20437;-69
2022/08/09 02:52:59;;;;;;;5.43;4.90;;;;;;;-143.84;53.24;44999.56;5133367;27;20434;-69
2022/08/09 02:55:27;;;;;;;9.30;5.20;;;;;;;-143.84;53.50;44978.63;5133153;27;20481;-69
2022/08/09 02:57:57;;;;;;;7.33;5.00;;;;;;;-143.84;53.95;44974.81;5133563;27;21318;-69
2022/08/09 03:00:26;;;;;;;10.20;5.60;;;;;;;-143.84;54.40;44961.47;5133105;27;20494;-69
2022/08/09 03:02:55;;;;;;;6.13;4.87;;;;;;;-143.84;54.41;44986.22;5133095;27;20433;-69
2022/08/09 03:05:24;;;;;;;13.67;5.50;;;;;;;-143.84;54.82;44961.47;5133266;27;20946;-69
2022/08/09 03:07:54;;;;;;;7.87;5.63;;;;;;;-143.84;55.20;44967.19;5132886;27;20477;-69
2022/08/09 03:10:21;;;;;;;7.33;5.57;;;;;;;-143.84;55.32;44948.16;5132938;27;20430;-69
2022/08/09 03:12:50;;;;;;;5.70;5.30;;;;;;;-143.84;55.46;44995.75;5132773;27;20441;-69
2022/08/09 03:15:20;;;;;;;5.63;4.73;;;;;;;-143.84;56.05;44969.09;5132947;27;20452;-69
2022/08/09 03:17:49;;;;;;;10.47;4.93;;;;;;;-143.84;56.70;44995.75;5132785;27;20521;-69
2022/08/09 03:20:17;;;;;;;12.90;5.70;;;;;;;-143.84;56.48;44974.81;5133069;27;20437;-80
2022/08/09 03:22:46;;;;;;;7.07;6.20;;;;;;;-143.84;57.05;44991.94;5135381;27;21262;-79
2022/08/09 03:25:14;;;;;;;8.50;5.33;;;;;;;-143.84;57.48;44967.19;5135918;27;20457;-79
2022/08/09 03:27:42;;;;;;;6.10;5.57;;;;;;;-143.84;58.09;44961.47;5135594;27;21426;-79
2022/08/09 03:30:13;;;;;;;11.93;5.87;;;;;;;-143.84;58.15;45018.59;5135448;27;20461;-78
2022/08/09 03:32:43;;;;;;;6.40;5.80;;;;;;;-143.84;58.08;44961.47;5135541;27;20995;-79
2022/08/09 03:35:11;;;;;;;8.93;5.47;;;;;;;-143.84;58.42;44986.22;5135067;27;20447;-79
2022/08/09 03:37:40;;;;;;;17.07;6.17;;;;;;;-143.84;58.63;44980.53;5135351;27;20513;-79
2022/08/09 03:40:08;;;;;;;9.67;5.07;;;;;;;-143.84;57.72;44965.28;5134374;27;20441;-79
2022/08/09 03:42:35;;;;;;;14.03;4.73;;;;;;;-143.84;57.45;44959.56;5135505;27;20422;-79
2022/08/09 03:45:02;;;;;;;11.90;5.53;;;;;;;-143.84;56.79;44959.56;5135665;27;20483;-78
2022/08/09 03:47:29;;;;;;;16.77;5.40;;;;;;;-143.84;56.69;44972.91;5134772;27;20458;-79
2022/08/09 03:50:00;;;;;;;8.50;5.20;;;;;;;-143.84;55.83;44967.19;5134299;27;20453;-77
2022/08/09 03:52:28;;;;;;;7.97;5.80;;;;;;;-143.84;55.09;44976.72;5134606;27;20438;-79
2022/08/09 03:54:57;;;;;;;6.37;5.20;;;;;;;-143.84;52.55;44961.47;5133581;27;20485;-79
2022/08/09 03:57:25;;;;;;;10.47;4.90;;;;;;;-143.84;51.30;44932.91;5133579;27;20455;-79
2022/08/09 03:59:54;;;;;;;8.90;5.20;;;;;;;-143.84;49.49;44946.25;5134080;27;20886;-79
2022/08/09 04:02:22;;;;;;;8.30;5.60;;;;;;;-143.84;48.59;44938.63;5133583;27;20441;-79
2022/08/09 04:04:50;;;;;;;4.80;4.40;;;;;;;-143.84;46.46;44931.00;5133826;27;20450;-79
2022/08/09 04:07:18;;;;;;;18.53;5.33;;;;;;;-143.84;45.38;44917.69;5133152;27;20484;-79
2022/08/09 04:09:46;;;;;;;8.57;5.67;;;;;;;-143.84;44.15;44913.88;5133210;27;20498;-79
2022/08/09 04:12:36;;;;;;;7.90;4.83;;;;;;;-143.84;43.53;44894.84;5132955;27;20434;-79
2022/08/09 04:15:03;;;;;;;7.13;5.50;;;;;;;-143.84;43.13;44917.69;5133654;27;20427;-79
2022/08/09 04:17:31;;;;;;;9.10;4.97;;;;;;;-143.84;42.31;44900.53;5134221;27;20790;-79
2022/08/09 04:19:58;;;;;;;6.97;4.70;;;;;;;-143.84;41.20;44854.84;5134210;27;20511;-79
2022/08/09 04:22:26;;;;;;;11.77;5.40;;;;;;;-143.84;41.37;44898.66;5134054;27;20498;-79
2022/08/09 04:24:54;;;;;;;6.60;5.03;;;;;;;-143.84;41.57;44915.78;5133803;27;20438;-79
2022/08/09 04:27:21;;;;;;;9.13;4.70;;;;;;;-143.84;41.51;44904.34;5133990;27;20474;-79
2022/08/09 04:29:48;;;;;;;8.43;4.57;;;;;;;-143.84;41.34;44892.94;5133484;27;21351;-79
2022/08/09 04:32:16;;;;;;;8.80;4.30;;;;;;;-143.84;41.11;44919.59;5131018;27;20434;-80
2022/08/09 04:34:43;;;;;;;6.63;4.70;;;;;;;-143.84;41.26;44906.25;5130381;27;21304;-80
2022/08/09 04:37:10;;;;;;;4.70;3.90;;;;;;;-143.84;41.81;44887.22;5131814;27;20438;-79
2022/08/09 04:39:39;;;;;;;14.03;5.33;;;;;;;-143.84;42.10;44887.22;5133393;27;20800;-79
2022/08/09 04:42:06;;;;;;;13.20;4.63;;;;;;;-143.84;41.25;44883.41;5133491;27;20461;-79
2022/08/09 04:44:34;;;;;;;6.00;3.50;;;;;;;-143.84;40.69;44911.97;5133246;27;20430;-79
2022/08/09 04:47:01;;;;;;;6.93;4.53;;;;;;;-143.84;40.44;44879.59;5133208;27;20923;-79
2022/08/09 04:49:32;;;;;;;4.20;3.90;;;;;;;-143.84;39.93;44906.25;5133288;27;20434;-79
2022/08/09 04:51:59;;;;;;;8.30;4.30;;;;;;;-143.84;38.78;44864.38;5133461;27;20935;-79
2022/08/09 04:54:26;;;;;;;8.20;4.40;;;;;;;-143.84;38.70;44887.22;5133212;27;20508;-78
2022/08/09 04:56:55;;;;;;;17.63;4.20;;;;;;;-143.84;38.35;44883.41;5132642;27;20487;-79
2022/08/09 04:59:22;;;;;;;8.57;4.27;;;;;;;-143.84;38.71;44906.25;5132626;27;20438;-80
2022/08/09 05:01:49;;;;;;;5.10;4.03;;;;;;;-143.84;38.78;44873.88;5136314;27;21140;-80
2022/08/09 05:04:17;;;;;;;9.50;3.50;;;;;;;-143.84;38.35;44879.59;5134673;27;20466;-79
2022/08/09 05:06:44;;;;;;;10.23;4.40;;;;;;;-143.84;38.07;44894.84;5133879;27;21169;-79
2022/08/09 05:09:11;;;;;;;9.93;4.00;;;;;;;-143.84;37.98;44862.47;5132649;27;21371;-79
2022/08/09 05:11:38;;;;;;;10.30;3.83;;;;;;;-143.84;37.47;44883.41;5133226;27;20438;-79
2022/08/09 05:14:07;;;;;;;4.47;3.60;;;;;;;-143.84;37.72;44866.28;5133440;27;20439;-79
2022/08/09 05:16:35;;;;;;;11.50;4.40;;;;;;;-143.84;37.55;44866.28;5133111;27;20439;-79
2022/08/09 05:19:02;;;;;;;12.13;4.77;;;;;;;-143.84;37.24;44858.66;5133376;27;20434;-79
2022/08/09 05:21:29;;;;;;;7.37;4.10;;;;;;;-143.84;36.74;44860.56;5132714;27;20448;-80
2022/08/09 05:23:56;;;;;;;6.00;4.00;;;;;;;-143.84;35.55;44851.03;5132843;27;20423;-80
2022/08/09 05:26:23;;;;;;;11.77;4.00;;;;;;;-143.84;36.36;44837.72;5132953;27;20980;-79
2022/08/09 05:28:50;;;;;;;12.43;4.00;;;;;;;-143.84;36.04;44809.16;5132683;27;20808;-80
2022/08/09 05:31:19;;;;;;;10.30;3.80;;;;;;;-143.84;35.39;44843.44;5132785;27;20438;-79
2022/08/09 05:33:46;;;;;;;6.17;3.80;;;;;;;-143.84;35.50;44837.72;5132955;27;21103;-79
2022/08/09 05:36:13;;;;;;;5.10;3.80;;;;;;;-143.84;35.05;44816.78;5132255;27;20438;-79
2022/08/09 05:38:40;;;;;;;4.37;3.97;;;;;;;-143.84;34.80;44833.91;5133011;27;20650;-80
2022/08/09 05:41:07;;;;;;;16.80;3.70;;;;;;;-143.84;34.89;44811.06;5132541;27;20434;-79
2022/08/09 05:43:35;;;;;;;5.07;3.67;;;;;;;-143.84;34.59;44835.81;5132338;27;20491;-79
2022/08/09 05:46:02;;;;;;;8.87;3.30;;;;;;;-143.84;34.36;44818.66;5132387;27;20514;-79
2022/08/09 05:48:31;;;;;;;5.23;3.60;;;;;;;-143.84;33.93;44841.53;5132140;27;20470;-79
2022/08/09 05:50:58;;;;;;;7.13;3.57;;;;;;;-143.84;33.63;44788.22;5132823;27;20430;-79
2022/08/09 05:53:25;;;;;;;7.00;3.17;;;;;;;-143.84;33.26;44822.47;5132277;27;20972;-79
2022/08/09 05:55:52;;;;;;;6.90;3.20;;;;;;;-143.84;33.80;44795.81;5132269;27;20481;-80
2022/08/09 05:58:19;;;;;;;6.03;3.43;;;;;;;-143.84;33.74;44786.31;5132384;27;20446;-79
2022/08/09 06:00:46;;;;;;;10.20;3.30;;;;;;;-143.84;32.86;44807.25;5132337;27;20438;-79
2022/08/09 06:03:13;;;;;;;9.87;3.10;;;;;;;-143.84;32.80;44803.44;5131912;27;20430;-79
2022/08/09 06:05:42;;;;;;;10.37;3.30;;;;;;;-143.84;33.16;44793.91;5132114;27;20479;-79
2022/08/09 06:08:09;;;;;;;5.13;3.77;;;;;;;-143.84;32.73;44801.53;5132151;27;20994;-79
2022/08/09 06:10:39;;;;;;;6.17;2.77;;;;;;;-143.84;31.73;44765.34;5131901;28;20508;-79
2022/08/09 06:13:07;;;;;;;13.33;4.10;;;;;;;-143.84;31.94;44776.78;5132573;28;20484;-80
2022/08/09 06:15:34;;;;;;;7.53;3.50;;;;;;;-143.84;31.55;44767.25;5132724;28;20434;-79
2022/08/09 06:18:02;;;;;;;14.70;3.30;;;;;;;-143.84;31.42;44752.03;5132284;28;20434;-79
2022/08/09 06:20:29;;;;;;;6.53;3.50;;;;;;;-143.84;31.92;44776.78;5131930;28;20434;-79
2022/08/09 06:22:58;;;;;;;15.43;3.57;;;;;;;-143.84;31.63;44786.31;5131536;28;20442;-72
2022/08/09 06:25:25;;;;;;;11.73;3.27;;;;;;;-143.84;31.50;44790.13;5129463;28;20449;-72
2022/08/09 06:27:52;;;;;;;3.17;2.63;;;;;;;-143.84;31.37;44755.84;5129710;28;20511;-73
2022/08/09 06:30:20;;;;;;;5.67;3.40;;;;;;;-143.84;31.75;44744.41;5129332;28;20438;-72
2022/08/09 06:32:47;;;;;;;13.63;3.60;;;;;;;-143.84;31.95;44771.06;5129411;28;20929;-73
2022/08/09 06:35:14;;;;;;;7.03;3.30;;;;;;;-143.84;31.91;44769.16;5129342;28;20438;-72
2022/08/09 06:37:42;;;;;;;5.23;3.23;;;;;;;-143.84;31.72;44792.00;5129412;28;20438;-73
2022/08/09 06:40:12;;;;;;;8.50;3.40;;;;;;;-143.84;31.21;44778.69;5129501;28;20429;-73
2022/08/09 06:42:39;;;;;;;6.00;3.57;;;;;;;-143.84;31.18;44761.56;5129492;28;20438;-73
2022/08/09 06:45:07;;;;;;;9.80;3.33;;;;;;;-143.84;31.10;44734.91;5129425;28;20438;-73
2022/08/09 06:47:34;;;;;;;4.57;2.70;;;;;;;-143.84;30.49;44719.66;5129304;28;20434;-72
2022/08/09 06:50:01;;;;;;;5.70;3.33;;;;;;;-143.84;30.86;44725.38;5129459;28;21075;-73
2022/08/09 06:52:28;;;;;;;7.63;3.40;;;;;;;-143.84;30.50;44755.84;5129398;28;20446;-73
2022/08/09 06:54:55;;;;;;;3.13;2.93;;;;;;;-143.84;30.61;44727.28;5129155;28;20561;-73
2022/08/09 06:57:24;;;;;;;2.93;2.73;;;;;;;-143.84;30.94;44733.00;5129159;28;20445;-73
2022/08/09 06:59:52;;;;;;;6.50;3.03;;;;;;;-143.84;30.95;44731.09;5129497;28;20495;-73
2022/08/09 07:02:20;;;;;;;8.60;3.13;;;;;;;-143.84;30.24;44759.66;5129282;28;20434;-73
2022/08/09 07:04:47;;;;;;;4.00;3.57;;;;;;;-143.84;30.70;44717.75;5129181;28;20445;-73
2022/08/09 07:07:15;;;;;;;9.47;3.40;;;;;;;-143.84;30.67;44725.38;5129360;28;20494;-73
2022/08/09 07:09:43;;;;;;;5.03;2.70;;;;;;;-143.84;30.54;44712.06;5129129;28;20481;-73
2022/08/09 07:12:11;;;;;;;11.80;3.07;;;;;;;-143.84;29.57;44733.00;5128801;28;20438;-73
2022/08/09 07:14:40;;;;;;;10.30;2.93;;;;;;;-143.84;29.51;44694.91;5129262;27;20438;-73
2022/08/09 07:17:07;;;;;;;5.20;2.70;;;;;;;-143.84;29.75;44748.22;5133297;27;20442;-73
2022/08/09 07:19:34;;;;;;;8.53;3.47;;;;;;;-143.84;29.13;44736.81;5135304;27;20450;-80
2022/08/09 07:22:01;;;;;;;4.77;3.40;;;;;;;-143.84;28.95;44744.41;5135273;27;20486;-80
2022/08/09 07:24:30;;;;;;;6.90;3.73;;;;;;;-143.84;28.83;44713.94;5134723;27;20437;-80
2022/08/09 07:26:58;;;;;;;5.90;3.07;;;;;;;-143.84;29.48;44702.53;5135113;27;20462;-80
2022/08/09 07:29:25;;;;;;;5.73;2.83;;;;;;;-143.84;28.76;44715.84;5135573;27;20503;-80
2022/08/09 07:31:54;;;;;;;11.53;2.40;;;;;;;-143.84;29.40;44723.47;5135543;27;20422;-80
2022/08/09 07:34:22;;;;;;;5.37;3.30;;;;;;;-143.84;29.86;44733.00;5134834;27;20434;-80
2022/08/09 07:36:49;;;;;;;4.50;2.70;;;;;;;-143.84;29.44;44713.94;5134840;27;20540;-80
2022/08/09 07:39:17;;;;;;;6.93;3.10;;;;;;;-143.84;29.69;44740.59;5134971;27;20434;-79
2022/08/09 07:41:44;;;;;;;10.63;2.67;;;;;;;-143.84;29.73;44742.50;5133976;27;20442;-79
2022/08/09 07:44:12;;;;;;;8.77;3.00;;;;;;;-143.84;29.27;44713.94;5133917;27;20434;-79
2022/08/09 07:46:39;;;;;;;5.10;3.07;;;;;;;-143.84;29.40;44713.94;5133785;27;20482;-79
2022/08/09 07:49:07;;;;;;;4.70;2.97;;;;;;;-143.84;28.43;44691.09;5133888;27;20478;-79
2022/08/09 07:51:34;;;;;;;2.67;2.40;;;;;;;-143.84;27.48;44683.50;5134374;27;20446;-78
2022/08/09 07:54:02;;;;;;;7.80;2.50;;;;;;;-143.84;27.59;44725.38;5115450;27;20458;-78
2022/08/09 07:56:29;;;;;;;5.97;3.03;;;;;;;-143.84;26.95;44704.44;5113290;28;21030;-78
2022/08/09 07:58:56;;;;;;;2.77;2.57;;;;;;;-143.84;27.48;44683.50;5112987;28;21282;-79
2022/08/09 08:01:23;;;;;;;8.27;2.87;;;;;;;-143.84;27.58;44700.63;5113482;28;20435;-79
2022/08/09 08:03:51;;;;;;;4.90;2.30;;;;;;;-143.84;27.44;44658.75;5112972;28;20447;-79
2022/08/09 08:06:19;;;;;;;6.93;2.70;;;;;;;-143.84;26.93;44700.63;5112661;28;20972;-78
2022/08/09 08:08:47;;;;;;;6.73;2.60;;;;;;;-143.84;27.22;44704.44;5112885;28;20490;-79
2022/08/09 08:11:14;;;;;;;3.73;2.30;;;;;;;-143.84;27.50;44660.63;5113170;28;20427;-79
2022/08/09 08:13:41;;;;;;;12.77;2.77;;;;;;;-143.84;27.22;44645.41;5112499;28;20441;-78
2022/08/09 08:16:09;;;;;;;10.60;2.40;;;;;;;-143.84;26.85;44645.41;5112429;28;20446;-79
2022/08/09 08:18:36;;;;;;;6.67;2.70;;;;;;;-143.84;27.30;44651.13;5112602;28;20548;-78
2022/08/09 08:21:04;;;;;;;14.53;2.37;;;;;;;-143.84;24.93;44645.41;5112338;28;20553;-78
2022/08/09 08:23:32;;;;;;;3.00;1.97;;;;;;;-143.84;25.48;44651.13;5112822;28;20435;-78
2022/08/09 08:25:59;;;;;;;6.73;2.13;;;;;;;-143.84;25.12;44685.38;5111994;28;20435;-78
2022/08/09 08:28:27;;;;;;;4.83;2.33;;;;;;;-143.84;24.02;44670.16;5112283;28;20505;-79
2022/08/09 08:30:54;;;;;;;3.83;2.33;;;;;;;-143.84;24.31;44670.16;5112834;28;20428;-79
2022/08/09 08:33:22;;;;;;;4.47;2.00;;;;;;;-143.84;24.80;44666.34;5112170;28;20435;-78
2022/08/09 08:35:49;;;;;;;14.13;2.67;;;;;;;-143.84;25.17;44660.63;5112144;28;20450;-78
2022/08/09 08:38:17;;;;;;;6.90;2.70;;;;;;;-143.84;25.20;44651.13;5111930;28;20850;-79
2022/08/09 08:40:46;;;;;;;5.03;3.57;;;;;;;-143.84;25.26;44679.69;5112495;28;20500;-78
2022/08/09 08:43:14;;;;;;;5.37;4.07;;;;;;;-143.84;25.88;44694.91;5111899;28;20439;-79
2022/08/09 08:45:48;;;;;;;8.40;3.23;;;;;;;-143.84;26.60;44641.59;5111732;28;20447;-79
2022/08/09 08:48:15;;;;;;;20.57;2.90;;;;;;;-143.84;26.27;44681.59;5111328;28;20804;-79
2022/08/09 08:50:42;;;;;;;6.33;2.43;;;;;;;-143.84;26.94;44653.03;5117701;27;20438;-79
2022/08/09 08:53:10;;;;;;;8.87;3.77;;;;;;;-143.84;26.81;44687.28;5132241;27;20442;-79
2022/08/09 08:55:37;;;;;;;3.97;2.57;;;;;;;-143.84;27.03;44654.94;5132083;27;20478;-79
2022/08/09 08:58:07;;;;;;;3.50;2.70;;;;;;;-143.84;27.47;44656.84;5132443;27;20446;-79
2022/08/09 09:00:34;;;;;;;9.80;3.43;;;;;;;-143.84;27.08;44673.97;5131841;27;20446;-79
2022/08/09 09:03:02;;;;;;;5.23;2.67;;;;;;;-143.84;27.12;44653.03;5129865;27;20835;-79
2022/08/09 09:05:32;;;;;;;10.33;3.10;;;;;;;-143.84;26.75;44658.75;5130167;27;20993;-79
2022/08/09 09:07:59;;;;;;;8.77;2.80;;;;;;;-143.84;26.99;44647.31;5131240;27;20430;-79
2022/08/09 09:10:29;;;;;;;10.47;2.73;;;;;;;-143.84;26.34;44668.25;5131247;27;20473;-79
2022/08/09 09:12:56;;;;;;;3.50;2.50;;;;;;;-143.84;26.82;44658.75;5131491;27;20466;-70
2022/08/09 09:15:26;;;;;;;14.77;3.70;;;;;;;-143.84;26.65;44673.97;5131108;27;20442;-79
2022/08/09 09:17:53;;;;;;;10.13;3.73;;;;;;;-143.84;27.09;44673.97;5132531;27;20437;-79
2022/08/09 09:20:21;;;;;;;2.90;2.27;;;;;;;-143.84;25.86;44654.94;5132331;27;20418;-79
2022/08/09 09:22:54;;;;;;;7.10;2.20;;;;;;;-143.84;26.79;44662.53;5132092;27;20863;-79
2022/08/09 09:25:36;;;;;;;8.50;2.67;;;;;;;-143.84;25.88;44614.94;5131470;27;20864;-79
2022/08/09 09:28:05;;;;;;;3.93;2.43;;;;;;;-143.84;25.66;44653.03;5131731;27;20430;-79
2022/08/09 09:30:35;;;;;;;4.17;2.40;;;;;;;-143.84;25.60;44634.00;5131848;27;20501;-79
2022/08/09 09:33:09;;;;;;;9.20;2.03;;;;;;;-143.84;24.26;44654.94;5132268;27;20495;-79
2022/08/09 09:35:51;;;;;;;14.63;2.30;;;;;;;-143.84;24.65;44626.38;5131769;27;20903;-79
2022/08/09 09:38:21;;;;;;;4.20;1.97;;;;;;;-143.84;24.61;44635.88;5130325;27;20439;-75
2022/08/09 09:40:48;;;;;;;6.87;2.00;;;;;;;-143.84;24.27;44618.75;5130556;27;20806;-75
2022/08/09 09:43:19;;;;;;;8.03;2.40;;;;;;;-143.84;24.72;44634.00;5129759;27;20447;-75
2022/08/09 09:45:50;;;;;;;9.73;2.77;;;;;;;-143.84;24.64;44641.59;5110229;27;20435;-75
2022/08/09 09:48:18;;;;;;;3.57;1.70;;;;;;;-143.84;25.24;44637.78;5136413;27;20889;-75
2022/08/09 09:50:47;;;;;;;6.00;2.07;;;;;;;-143.84;24.67;44618.75;5132212;27;20576;-75
2022/08/09 09:53:16;;;;;;;5.70;2.10;;;;;;;-143.84;23.99;44647.31;5126559;27;21229;-75
2022/08/09 09:55:58;;;;;;;3.43;1.77;;;;;;;-143.84;24.48;44605.44;5123337;27;20565;-75
2022/08/09 09:58:26;;;;;;;6.80;2.30;;;;;;;-143.84;23.92;44614.94;5116208;27;20828;-75
2022/08/09 10:00:57;;;;;;;4.63;1.90;;;;;;;-143.84;23.60;44632.09;5116605;27;21040;-75
2022/08/09 10:03:42;;;;;;;17.93;2.60;;;;;;;-143.84;24.51;44639.69;5135218;27;20490;-75
2022/08/09 10:06:10;;;;;;;13.93;2.00;;;;;;;-143.84;24.70;44620.66;5122306;27;20933;-75
2022/08/09 10:08:37;;;;;;;11.20;2.00;;;;;;;-143.84;24.73;44662.53;5137095;27;20449;-75
2022/08/09 10:11:18;;;;;;;6.73;1.60;;;;;;;-143.84;25.71;44645.41;5136175;27;21023;-75
2022/08/09 10:13:46;;;;;;;8.27;2.03;;;;;;;-143.84;24.36;44641.59;5133901;27;20451;-75
2022/08/09 10:16:15;;;;;;;4.40;1.87;;;;;;;-143.84;24.21;44635.88;5133969;27;20455;-75
2022/08/09 10:18:53;;;;;;;8.93;1.93;;;;;;;-143.84;23.81;44660.63;5132752;27;20463;-75
2022/08/09 10:21:20;;;;;;;7.00;1.70;;;;;;;-143.84;24.31;44666.34;5132337;27;20894;-75
2022/08/09 10:23:48;;;;;;;8.50;1.97;;;;;;;-143.84;24.34;44654.94;5129138;27;21240;-75
2022/08/09 10:26:15;;;;;;;6.93;1.87;;;;;;;-143.84;23.89;44649.22;5129039;27;20812;-75
2022/08/09 10:28:44;;;;;;;6.73;1.90;;;;;;;-143.84;23.94;44666.34;5127017;27;20946;-75
2022/08/09 10:31:15;;;;;;;7.03;1.87;;;;;;;-143.84;24.38;44672.06;5131251;27;20451;-75
2022/08/09 10:33:43;;;;;;;11.90;2.00;;;;;;;-143.84;24.14;44685.38;5129331;27;20446;-75
2022/08/09 10:36:11;;;;;;;7.80;2.07;;;;;;;-143.84;23.62;44689.19;5132922;27;20451;-75
2022/08/09 10:38:40;;;;;;;5.53;2.20;;;;;;;-143.84;24.32;44656.84;5130427;27;20500;-75
2022/08/09 10:41:07;;;;;;;7.70;1.53;;;;;;;-143.84;24.26;44687.28;5133434;27;20507;-75
2022/08/09 10:43:35;;;;;;;8.00;2.07;;;;;;;-143.84;23.91;44662.53;5130602;27;20447;-75
2022/08/09 10:46:30;;;;;;;6.93;1.90;;;;;;;-143.84;23.98;44679.69;5134603;27;20958;-75
2022/08/09 10:49:07;;;;;;;12.70;2.00;;;;;;;-143.84;24.62;44672.06;5118926;27;20940;-77
2022/08/09 10:51:48;;;;;;;8.60;1.80;;;;;;;-143.84;24.69;44706.34;5112831;28;20442;-75
2022/08/09 10:54:15;;;;;;;15.90;1.80;;;;;;;-143.84;23.81;44704.44;5112833;28;21272;-75
2022/08/09 10:56:43;;;;;;;11.93;2.00;;;;;;;-143.84;23.94;44685.38;5112914;28;20431;-75
2022/08/09 10:59:31;;;;;;;6.50;1.93;;;;;;;-143.84;24.32;44694.91;5112786;28;20948;-75
2022/08/09 11:01:59;;;;;;;2.47;1.60;;;;;;;-143.84;23.80;44687.28;5112866;28;21328;-75
2022/08/09 11:04:29;;;;;;;3.37;1.60;;;;;;;-143.84;24.15;44702.53;5113142;28;21223;-75
2022/08/09 11:07:30;;;;;;;6.13;1.70;;;;;;;-143.84;24.89;44673.97;5112768;27;20447;-75
2022/08/09 11:09:57;;;;;;;6.73;1.90;;;;;;;-143.84;23.86;44662.53;5108180;27;20478;-75
2022/08/09 11:12:27;;;;;;;6.33;1.87;;;;;;;-143.84;23.29;44673.97;5112337;28;20928;-75
2022/08/09 11:14:55;;;;;;;7.17;1.80;;;;;;;-143.84;23.70;44673.97;5112291;28;20443;-75
2022/08/09 11:17:47;;;;;;;5.67;1.90;;;;;;;-143.84;23.32;44668.25;5112715;27;20450;-75
2022/08/09 11:20:18;;;;;;;13.47;2.03;;;;;;;-143.84;23.40;44685.38;5092400;27;20458;-75
2022/08/09 11:23:01;;;;;;;3.90;2.33;;;;;;;-143.84;24.09;44683.50;5112357;28;21024;-75
2022/08/09 11:25:48;;;;;;;9.50;1.97;;;;;;;-143.84;24.07;44656.84;5112165;28;20443;-75